sensor_id;sensor_type;location;lat;lon;timestamp;P1;durP1;ratioP1;P2;durP2;ratioP2
42030;SDS011;27709;52.036;5.906;2023-02-15T00:01:37;44.45;;;20.42;;
42030;SDS011;27709;52.036;5.906;2023-02-15T00:04:04;43.45;;;21.67;;
42030;SDS011;27709;52.036;5.906;2023-02-15T00:06:31;43.35;;;21.20;;
42030;SDS011;27709;52.036;5.906;2023-02-15T00:08:58;41.47;;;20.48;;
42030;SDS011;27709;52.036;5.906;2023-02-15T00:11:24;42.42;;;21.13;;
42030;SDS011;27709;52.036;5.906;2023-02-15T00:14:09;37.08;;;19.80;;
42030;SDS011;27709;52.036;5.906;2023-02-15T00:16:37;39.58;;;20.88;;
42030;SDS011;27709;52.036;5.906;2023-02-15T00:19:04;39.15;;;20.63;;
42030;SDS011;27709;52.036;5.906;2023-02-15T00:21:30;39.00;;;19.73;;
42030;SDS011;27709;52.036;5.906;2023-02-15T00:23:57;40.75;;;20.30;;
42030;SDS011;27709;52.036;5.906;2023-02-15T00:26:25;37.63;;;19.40;;
42030;SDS011;27709;52.036;5.906;2023-02-15T00:28:51;38.97;;;19.65;;
42030;SDS011;27709;52.036;5.906;2023-02-15T00:31:17;37.92;;;19.70;;
42030;SDS011;27709;52.036;5.906;2023-02-15T00:33:43;43.13;;;20.95;;
42030;SDS011;27709;52.036;5.906;2023-02-15T00:36:11;43.60;;;21.45;;
42030;SDS011;27709;52.036;5.906;2023-02-15T00:38:37;40.05;;;21.45;;
42030;SDS011;27709;52.036;5.906;2023-02-15T00:41:06;44.15;;;21.13;;
42030;SDS011;27709;52.036;5.906;2023-02-15T00:43:33;44.28;;;21.45;;
42030;SDS011;27709;52.036;5.906;2023-02-15T00:45:59;38.00;;;19.38;;
42030;SDS011;27709;52.036;5.906;2023-02-15T00:48:26;39.55;;;20.23;;
42030;SDS011;27709;52.036;5.906;2023-02-15T00:50:52;38.17;;;20.30;;
42030;SDS011;27709;52.036;5.906;2023-02-15T00:53:21;39.83;;;20.55;;
42030;SDS011;27709;52.036;5.906;2023-02-15T00:55:48;39.72;;;20.40;;
42030;SDS011;27709;52.036;5.906;2023-02-15T00:58:14;44.90;;;21.67;;
42030;SDS011;27709;52.036;5.906;2023-02-15T01:00:41;41.05;;;21.45;;
42030;SDS011;27709;52.036;5.906;2023-02-15T01:03:09;43.92;;;21.90;;
42030;SDS011;27709;52.036;5.906;2023-02-15T01:05:35;50.20;;;22.75;;
42030;SDS011;27709;52.036;5.906;2023-02-15T01:08:03;44.50;;;21.52;;
42030;SDS011;27709;52.036;5.906;2023-02-15T01:10:30;47.13;;;22.35;;
42030;SDS011;27709;52.036;5.906;2023-02-15T01:12:56;40.97;;;21.02;;
42030;SDS011;27709;52.036;5.906;2023-02-15T01:15:22;45.28;;;22.08;;
42030;SDS011;27709;52.036;5.906;2023-02-15T01:17:48;45.20;;;21.40;;
42030;SDS011;27709;52.036;5.906;2023-02-15T01:20:25;45.00;;;22.40;;
42030;SDS011;27709;52.036;5.906;2023-02-15T01:22:54;42.70;;;21.13;;
42030;SDS011;27709;52.036;5.906;2023-02-15T01:25:22;43.15;;;20.88;;
42030;SDS011;27709;52.036;5.906;2023-02-15T01:27:48;43.72;;;21.45;;
42030;SDS011;27709;52.036;5.906;2023-02-15T01:30:15;41.95;;;21.50;;
42030;SDS011;27709;52.036;5.906;2023-02-15T01:32:42;40.42;;;20.65;;
42030;SDS011;27709;52.036;5.906;2023-02-15T01:35:10;42.47;;;20.58;;
42030;SDS011;27709;52.036;5.906;2023-02-15T01:37:37;37.33;;;19.35;;
42030;SDS011;27709;52.036;5.906;2023-02-15T01:40:07;41.20;;;20.58;;
42030;SDS011;27709;52.036;5.906;2023-02-15T01:42:37;42.53;;;19.83;;
42030;SDS011;27709;52.036;5.906;2023-02-15T01:45:04;39.08;;;20.27;;
42030;SDS011;27709;52.036;5.906;2023-02-15T01:47:45;36.70;;;18.52;;
42030;SDS011;27709;52.036;5.906;2023-02-15T01:50:16;44.25;;;21.20;;
42030;SDS011;27709;52.036;5.906;2023-02-15T01:53:02;33.38;;;18.08;;
42030;SDS011;27709;52.036;5.906;2023-02-15T01:55:59;38.00;;;20.23;;
42030;SDS011;27709;52.036;5.906;2023-02-15T01:58:29;40.33;;;21.55;;
42030;SDS011;27709;52.036;5.906;2023-02-15T02:00:58;39.38;;;20.48;;
42030;SDS011;27709;52.036;5.906;2023-02-15T02:03:30;40.47;;;21.27;;
42030;SDS011;27709;52.036;5.906;2023-02-15T02:06:16;42.45;;;22.75;;
42030;SDS011;27709;52.036;5.906;2023-02-15T02:08:44;44.45;;;21.00;;
42030;SDS011;27709;52.036;5.906;2023-02-15T02:11:12;41.03;;;21.10;;
42030;SDS011;27709;52.036;5.906;2023-02-15T02:13:39;42.63;;;21.60;;
42030;SDS011;27709;52.036;5.906;2023-02-15T02:16:08;43.42;;;21.17;;
42030;SDS011;27709;52.036;5.906;2023-02-15T02:19:05;43.17;;;20.55;;
42030;SDS011;27709;52.036;5.906;2023-02-15T02:21:51;42.67;;;20.95;;
42030;SDS011;27709;52.036;5.906;2023-02-15T02:25:01;45.85;;;22.23;;
42030;SDS011;27709;52.036;5.906;2023-02-15T02:30:30;43.25;;;21.67;;
42030;SDS011;27709;52.036;5.906;2023-02-15T02:35:44;41.10;;;21.08;;
42030;SDS011;27709;52.036;5.906;2023-02-15T02:41:15;37.58;;;20.00;;
42030;SDS011;27709;52.036;5.906;2023-02-15T02:46:16;45.75;;;22.48;;
42030;SDS011;27709;52.036;5.906;2023-02-15T02:48:46;36.20;;;20.02;;
42030;SDS011;27709;52.036;5.906;2023-02-15T02:51:14;40.97;;;21.08;;
42030;SDS011;27709;52.036;5.906;2023-02-15T02:53:46;41.25;;;21.15;;
42030;SDS011;27709;52.036;5.906;2023-02-15T02:58:50;40.53;;;20.92;;
42030;SDS011;27709;52.036;5.906;2023-02-15T03:01:23;41.17;;;21.08;;
42030;SDS011;27709;52.036;5.906;2023-02-15T03:03:55;47.35;;;22.13;;
42030;SDS011;27709;52.036;5.906;2023-02-15T03:07:13;41.30;;;20.85;;
42030;SDS011;27709;52.036;5.906;2023-02-15T03:09:28;46.80;;;22.52;;
42030;SDS011;27709;52.036;5.906;2023-02-15T03:12:12;38.42;;;20.48;;
42030;SDS011;27709;52.036;5.906;2023-02-15T03:14:40;47.03;;;22.42;;
42030;SDS011;27709;52.036;5.906;2023-02-15T03:17:09;44.67;;;22.15;;
42030;SDS011;27709;52.036;5.906;2023-02-15T03:19:38;39.00;;;20.45;;
42030;SDS011;27709;52.036;5.906;2023-02-15T03:22:10;41.40;;;21.13;;
42030;SDS011;27709;52.036;5.906;2023-02-15T03:24:47;38.17;;;20.25;;
42030;SDS011;27709;52.036;5.906;2023-02-15T03:27:36;40.53;;;21.75;;
42030;SDS011;27709;52.036;5.906;2023-02-15T03:30:07;36.63;;;19.45;;
42030;SDS011;27709;52.036;5.906;2023-02-15T03:32:37;39.28;;;19.58;;
42030;SDS011;27709;52.036;5.906;2023-02-15T03:35:04;41.15;;;20.25;;
42030;SDS011;27709;52.036;5.906;2023-02-15T03:37:39;42.15;;;20.17;;
42030;SDS011;27709;52.036;5.906;2023-02-15T03:40:16;39.88;;;20.13;;
42030;SDS011;27709;52.036;5.906;2023-02-15T03:46:23;35.92;;;18.95;;
42030;SDS011;27709;52.036;5.906;2023-02-15T03:49:00;37.90;;;19.92;;
42030;SDS011;27709;52.036;5.906;2023-02-15T03:51:48;40.13;;;20.77;;
42030;SDS011;27709;52.036;5.906;2023-02-15T03:54:21;38.08;;;19.30;;
42030;SDS011;27709;52.036;5.906;2023-02-15T03:57:12;36.58;;;18.98;;
42030;SDS011;27709;52.036;5.906;2023-02-15T03:59:59;41.55;;;19.85;;
42030;SDS011;27709;52.036;5.906;2023-02-15T04:05:28;37.22;;;19.50;;
42030;SDS011;27709;52.036;5.906;2023-02-15T04:07:55;37.83;;;19.70;;
42030;SDS011;27709;52.036;5.906;2023-02-15T04:10:21;40.60;;;19.95;;
42030;SDS011;27709;52.036;5.906;2023-02-15T04:13:05;40.58;;;19.80;;
42030;SDS011;27709;52.036;5.906;2023-02-15T04:15:31;36.22;;;18.40;;
42030;SDS011;27709;52.036;5.906;2023-02-15T04:18:15;34.80;;;18.25;;
42030;SDS011;27709;52.036;5.906;2023-02-15T04:20:44;36.85;;;19.27;;
42030;SDS011;27709;52.036;5.906;2023-02-15T04:23:29;35.00;;;19.23;;
42030;SDS011;27709;52.036;5.906;2023-02-15T04:26:15;37.88;;;19.23;;
42030;SDS011;27709;52.036;5.906;2023-02-15T04:28:41;37.30;;;18.80;;
42030;SDS011;27709;52.036;5.906;2023-02-15T04:31:08;38.10;;;18.63;;
42030;SDS011;27709;52.036;5.906;2023-02-15T04:33:33;38.47;;;19.27;;
42030;SDS011;27709;52.036;5.906;2023-02-15T04:36:00;36.80;;;19.02;;
42030;SDS011;27709;52.036;5.906;2023-02-15T04:38:27;38.45;;;20.33;;
42030;SDS011;27709;52.036;5.906;2023-02-15T04:40:53;38.92;;;19.30;;
42030;SDS011;27709;52.036;5.906;2023-02-15T04:43:19;39.97;;;20.48;;
42030;SDS011;27709;52.036;5.906;2023-02-15T04:45:48;37.70;;;19.80;;
42030;SDS011;27709;52.036;5.906;2023-02-15T04:48:15;39.40;;;19.80;;
42030;SDS011;27709;52.036;5.906;2023-02-15T04:50:41;36.60;;;19.00;;
42030;SDS011;27709;52.036;5.906;2023-02-15T04:53:07;38.28;;;19.17;;
42030;SDS011;27709;52.036;5.906;2023-02-15T04:55:35;34.83;;;18.30;;
42030;SDS011;27709;52.036;5.906;2023-02-15T04:58:01;37.67;;;18.88;;
42030;SDS011;27709;52.036;5.906;2023-02-15T05:00:28;35.13;;;18.60;;
42030;SDS011;27709;52.036;5.906;2023-02-15T05:02:55;39.38;;;20.25;;
42030;SDS011;27709;52.036;5.906;2023-02-15T05:05:20;39.05;;;20.63;;
42030;SDS011;27709;52.036;5.906;2023-02-15T05:07:49;35.95;;;18.83;;
42030;SDS011;27709;52.036;5.906;2023-02-15T05:10:15;38.47;;;19.70;;
42030;SDS011;27709;52.036;5.906;2023-02-15T05:12:40;40.15;;;20.45;;
42030;SDS011;27709;52.036;5.906;2023-02-15T05:15:06;39.28;;;19.73;;
42030;SDS011;27709;52.036;5.906;2023-02-15T05:17:32;39.55;;;20.33;;
42030;SDS011;27709;52.036;5.906;2023-02-15T05:19:59;36.58;;;19.75;;
42030;SDS011;27709;52.036;5.906;2023-02-15T05:22:25;39.50;;;19.85;;
42030;SDS011;27709;52.036;5.906;2023-02-15T05:24:51;39.83;;;20.20;;
42030;SDS011;27709;52.036;5.906;2023-02-15T05:27:37;39.35;;;20.10;;
42030;SDS011;27709;52.036;5.906;2023-02-15T05:30:21;39.63;;;19.67;;
42030;SDS011;27709;52.036;5.906;2023-02-15T05:32:47;36.05;;;18.58;;
42030;SDS011;27709;52.036;5.906;2023-02-15T05:35:16;38.67;;;20.40;;
42030;SDS011;27709;52.036;5.906;2023-02-15T05:37:42;42.67;;;21.13;;
42030;SDS011;27709;52.036;5.906;2023-02-15T05:40:09;37.20;;;20.17;;
42030;SDS011;27709;52.036;5.906;2023-02-15T05:42:35;39.92;;;20.05;;
42030;SDS011;27709;52.036;5.906;2023-02-15T05:45:00;40.78;;;21.83;;
42030;SDS011;27709;52.036;5.906;2023-02-15T05:47:26;38.92;;;20.48;;
42030;SDS011;27709;52.036;5.906;2023-02-15T05:49:51;40.78;;;20.30;;
42030;SDS011;27709;52.036;5.906;2023-02-15T05:52:17;37.25;;;19.90;;
42030;SDS011;27709;52.036;5.906;2023-02-15T05:54:42;38.97;;;20.45;;
42030;SDS011;27709;52.036;5.906;2023-02-15T05:57:08;42.25;;;20.60;;
42030;SDS011;27709;52.036;5.906;2023-02-15T05:59:33;45.85;;;21.92;;
42030;SDS011;27709;52.036;5.906;2023-02-15T06:01:59;38.80;;;20.63;;
42030;SDS011;27709;52.036;5.906;2023-02-15T06:04:24;41.53;;;21.00;;
42030;SDS011;27709;52.036;5.906;2023-02-15T06:06:50;40.72;;;20.95;;
42030;SDS011;27709;52.036;5.906;2023-02-15T06:09:15;43.38;;;21.00;;
42030;SDS011;27709;52.036;5.906;2023-02-15T06:11:43;44.35;;;21.58;;
42030;SDS011;27709;52.036;5.906;2023-02-15T06:14:09;44.60;;;21.38;;
42030;SDS011;27709;52.036;5.906;2023-02-15T06:16:35;38.72;;;19.63;;
42030;SDS011;27709;52.036;5.906;2023-02-15T06:19:01;38.63;;;19.25;;
42030;SDS011;27709;52.036;5.906;2023-02-15T06:21:27;43.63;;;21.88;;
42030;SDS011;27709;52.036;5.906;2023-02-15T06:23:53;41.60;;;20.83;;
42030;SDS011;27709;52.036;5.906;2023-02-15T06:26:18;46.45;;;23.27;;
42030;SDS011;27709;52.036;5.906;2023-02-15T06:28:44;41.80;;;21.52;;
42030;SDS011;27709;52.036;5.906;2023-02-15T06:31:09;42.67;;;22.27;;
42030;SDS011;27709;52.036;5.906;2023-02-15T06:33:35;43.08;;;21.70;;
42030;SDS011;27709;52.036;5.906;2023-02-15T06:36:00;42.53;;;20.98;;
42030;SDS011;27709;52.036;5.906;2023-02-15T06:38:26;40.63;;;19.90;;
42030;SDS011;27709;52.036;5.906;2023-02-15T06:40:52;41.83;;;21.52;;
42030;SDS011;27709;52.036;5.906;2023-02-15T06:43:17;47.22;;;22.83;;
42030;SDS011;27709;52.036;5.906;2023-02-15T06:45:43;45.22;;;21.85;;
42030;SDS011;27709;52.036;5.906;2023-02-15T06:48:09;41.03;;;20.63;;
42030;SDS011;27709;52.036;5.906;2023-02-15T06:50:36;42.08;;;21.88;;
42030;SDS011;27709;52.036;5.906;2023-02-15T06:53:01;47.90;;;22.73;;
42030;SDS011;27709;52.036;5.906;2023-02-15T06:55:27;50.30;;;26.10;;
42030;SDS011;27709;52.036;5.906;2023-02-15T06:57:53;48.42;;;23.42;;
42030;SDS011;27709;52.036;5.906;2023-02-15T07:00:18;50.75;;;24.85;;
42030;SDS011;27709;52.036;5.906;2023-02-15T07:02:45;45.55;;;22.48;;
42030;SDS011;27709;52.036;5.906;2023-02-15T07:05:11;46.00;;;23.70;;
42030;SDS011;27709;52.036;5.906;2023-02-15T07:07:36;48.53;;;24.15;;
42030;SDS011;27709;52.036;5.906;2023-02-15T07:10:02;50.20;;;24.77;;
42030;SDS011;27709;52.036;5.906;2023-02-15T07:12:28;46.83;;;23.83;;
42030;SDS011;27709;52.036;5.906;2023-02-15T07:15:06;49.45;;;24.02;;
42030;SDS011;27709;52.036;5.906;2023-02-15T07:17:34;44.72;;;23.02;;
42030;SDS011;27709;52.036;5.906;2023-02-15T07:20:00;45.28;;;22.52;;
42030;SDS011;27709;52.036;5.906;2023-02-15T07:22:28;54.88;;;25.90;;
42030;SDS011;27709;52.036;5.906;2023-02-15T07:24:53;50.75;;;25.42;;
42030;SDS011;27709;52.036;5.906;2023-02-15T07:27:19;50.65;;;24.85;;
42030;SDS011;27709;52.036;5.906;2023-02-15T07:29:45;48.22;;;25.23;;
42030;SDS011;27709;52.036;5.906;2023-02-15T07:32:11;53.42;;;27.42;;
42030;SDS011;27709;52.036;5.906;2023-02-15T07:34:36;50.83;;;26.08;;
42030;SDS011;27709;52.036;5.906;2023-02-15T07:37:02;52.90;;;25.92;;
42030;SDS011;27709;52.036;5.906;2023-02-15T07:39:27;50.67;;;25.65;;
42030;SDS011;27709;52.036;5.906;2023-02-15T07:41:53;53.55;;;25.60;;
42030;SDS011;27709;52.036;5.906;2023-02-15T07:44:18;54.38;;;28.17;;
42030;SDS011;27709;52.036;5.906;2023-02-15T07:46:44;55.58;;;28.13;;
42030;SDS011;27709;52.036;5.906;2023-02-15T07:49:09;55.95;;;28.15;;
42030;SDS011;27709;52.036;5.906;2023-02-15T07:51:35;52.17;;;26.88;;
42030;SDS011;27709;52.036;5.906;2023-02-15T07:54:00;53.53;;;26.92;;
42030;SDS011;27709;52.036;5.906;2023-02-15T07:56:26;52.10;;;26.77;;
42030;SDS011;27709;52.036;5.906;2023-02-15T07:58:51;53.70;;;26.98;;
42030;SDS011;27709;52.036;5.906;2023-02-15T08:01:22;52.85;;;27.65;;
42030;SDS011;27709;52.036;5.906;2023-02-15T08:03:50;51.53;;;26.67;;
42030;SDS011;27709;52.036;5.906;2023-02-15T08:06:16;52.13;;;25.75;;
42030;SDS011;27709;52.036;5.906;2023-02-15T08:08:42;52.28;;;26.15;;
42030;SDS011;27709;52.036;5.906;2023-02-15T08:11:15;51.20;;;27.17;;
42030;SDS011;27709;52.036;5.906;2023-02-15T08:16:54;48.95;;;26.30;;
42030;SDS011;27709;52.036;5.906;2023-02-15T08:19:22;51.90;;;26.27;;
42030;SDS011;27709;52.036;5.906;2023-02-15T08:21:49;54.83;;;27.40;;
42030;SDS011;27709;52.036;5.906;2023-02-15T08:24:17;53.50;;;26.67;;
42030;SDS011;27709;52.036;5.906;2023-02-15T08:26:44;51.80;;;26.48;;
42030;SDS011;27709;52.036;5.906;2023-02-15T08:29:11;52.97;;;27.42;;
42030;SDS011;27709;52.036;5.906;2023-02-15T08:31:38;46.85;;;24.63;;
42030;SDS011;27709;52.036;5.906;2023-02-15T08:34:05;46.33;;;25.20;;
42030;SDS011;27709;52.036;5.906;2023-02-15T08:36:31;48.45;;;27.08;;
42030;SDS011;27709;52.036;5.906;2023-02-15T08:38:58;50.22;;;27.30;;
42030;SDS011;27709;52.036;5.906;2023-02-15T08:41:25;47.97;;;26.52;;
42030;SDS011;27709;52.036;5.906;2023-02-15T08:43:53;45.85;;;26.85;;
42030;SDS011;27709;52.036;5.906;2023-02-15T08:46:20;47.70;;;25.75;;
42030;SDS011;27709;52.036;5.906;2023-02-15T08:48:48;42.55;;;24.33;;
42030;SDS011;27709;52.036;5.906;2023-02-15T08:51:14;44.60;;;24.55;;
42030;SDS011;27709;52.036;5.906;2023-02-15T08:53:42;45.67;;;25.92;;
42030;SDS011;27709;52.036;5.906;2023-02-15T08:56:10;45.40;;;25.60;;
42030;SDS011;27709;52.036;5.906;2023-02-15T08:58:36;46.83;;;26.50;;
42030;SDS011;27709;52.036;5.906;2023-02-15T09:01:08;42.70;;;25.73;;
42030;SDS011;27709;52.036;5.906;2023-02-15T09:03:38;45.00;;;25.38;;
42030;SDS011;27709;52.036;5.906;2023-02-15T09:06:04;43.78;;;25.42;;
42030;SDS011;27709;52.036;5.906;2023-02-15T09:08:30;43.65;;;25.05;;
42030;SDS011;27709;52.036;5.906;2023-02-15T09:13:54;43.75;;;25.85;;
42030;SDS011;27709;52.036;5.906;2023-02-15T09:16:21;44.50;;;26.00;;
42030;SDS011;27709;52.036;5.906;2023-02-15T09:18:48;43.85;;;24.70;;
42030;SDS011;27709;52.036;5.906;2023-02-15T09:21:16;42.20;;;23.88;;
42030;SDS011;27709;52.036;5.906;2023-02-15T09:23:47;41.08;;;24.80;;
42030;SDS011;27709;52.036;5.906;2023-02-15T09:26:18;41.03;;;24.77;;
42030;SDS011;27709;52.036;5.906;2023-02-15T09:28:45;40.47;;;24.90;;
42030;SDS011;27709;52.036;5.906;2023-02-15T09:31:15;43.33;;;25.70;;
42030;SDS011;27709;52.036;5.906;2023-02-15T09:33:44;42.40;;;24.35;;
42030;SDS011;27709;52.036;5.906;2023-02-15T09:36:15;43.05;;;26.23;;
42030;SDS011;27709;52.036;5.906;2023-02-15T09:38:52;40.60;;;24.38;;
42030;SDS011;27709;52.036;5.906;2023-02-15T09:41:43;43.95;;;26.65;;
42030;SDS011;27709;52.036;5.906;2023-02-15T09:50:13;37.30;;;21.63;;
42030;SDS011;27709;52.036;5.906;2023-02-15T09:58:42;39.33;;;22.00;;
42030;SDS011;27709;52.036;5.906;2023-02-15T10:01:34;39.25;;;23.20;;
42030;SDS011;27709;52.036;5.906;2023-02-15T10:13:03;37.63;;;21.42;;
42030;SDS011;27709;52.036;5.906;2023-02-15T10:26:56;33.42;;;19.40;;
42030;SDS011;27709;52.036;5.906;2023-02-15T10:29:29;34.17;;;20.58;;
42030;SDS011;27709;52.036;5.906;2023-02-15T10:32:04;36.35;;;21.45;;
42030;SDS011;27709;52.036;5.906;2023-02-15T10:34:39;33.72;;;20.48;;
42030;SDS011;27709;52.036;5.906;2023-02-15T10:40:20;33.38;;;20.42;;
42030;SDS011;27709;52.036;5.906;2023-02-15T10:45:36;31.10;;;19.92;;
42030;SDS011;27709;52.036;5.906;2023-02-15T10:50:55;31.88;;;19.67;;
42030;SDS011;27709;52.036;5.906;2023-02-15T11:01:47;31.45;;;19.35;;
42030;SDS011;27709;52.036;5.906;2023-02-15T11:04:27;31.27;;;19.52;;
42030;SDS011;27709;52.036;5.906;2023-02-15T11:07:02;33.40;;;19.92;;
42030;SDS011;27709;52.036;5.906;2023-02-15T11:09:37;30.92;;;19.60;;
42030;SDS011;27709;52.036;5.906;2023-02-15T11:12:08;33.08;;;19.38;;
42030;SDS011;27709;52.036;5.906;2023-02-15T11:14:41;34.22;;;19.58;;
42030;SDS011;27709;52.036;5.906;2023-02-15T11:17:14;31.13;;;19.55;;
42030;SDS011;27709;52.036;5.906;2023-02-15T11:22:40;32.13;;;20.40;;
42030;SDS011;27709;52.036;5.906;2023-02-15T11:25:14;32.28;;;19.95;;
42030;SDS011;27709;52.036;5.906;2023-02-15T11:27:48;30.90;;;19.15;;
42030;SDS011;27709;52.036;5.906;2023-02-15T11:30:18;33.90;;;19.90;;
42030;SDS011;27709;52.036;5.906;2023-02-15T11:32:46;30.10;;;19.13;;
42030;SDS011;27709;52.036;5.906;2023-02-15T11:35:36;35.33;;;22.42;;
42030;SDS011;27709;52.036;5.906;2023-02-15T11:41:33;34.63;;;20.33;;
42030;SDS011;27709;52.036;5.906;2023-02-15T11:43:44;31.52;;;19.30;;
42030;SDS011;27709;52.036;5.906;2023-02-15T11:46:16;29.10;;;18.10;;
42030;SDS011;27709;52.036;5.906;2023-02-15T11:48:44;28.83;;;17.00;;
42030;SDS011;27709;52.036;5.906;2023-02-15T11:51:20;30.83;;;18.00;;
42030;SDS011;27709;52.036;5.906;2023-02-15T11:53:47;28.70;;;17.98;;
42030;SDS011;27709;52.036;5.906;2023-02-15T11:56:18;33.10;;;19.35;;
42030;SDS011;27709;52.036;5.906;2023-02-15T11:58:54;32.37;;;18.03;;
42030;SDS011;27709;52.036;5.906;2023-02-15T12:01:33;31.05;;;18.33;;
42030;SDS011;27709;52.036;5.906;2023-02-15T12:09:28;29.38;;;18.30;;
42030;SDS011;27709;52.036;5.906;2023-02-15T12:12:22;31.70;;;18.27;;
42030;SDS011;27709;52.036;5.906;2023-02-15T12:14:55;30.20;;;19.17;;
42030;SDS011;27709;52.036;5.906;2023-02-15T12:17:23;30.42;;;18.63;;
42030;SDS011;27709;52.036;5.906;2023-02-15T12:19:52;32.55;;;18.77;;
42030;SDS011;27709;52.036;5.906;2023-02-15T12:22:22;31.45;;;18.13;;
42030;SDS011;27709;52.036;5.906;2023-02-15T12:24:58;32.42;;;18.48;;
42030;SDS011;27709;52.036;5.906;2023-02-15T12:27:32;30.17;;;18.10;;
42030;SDS011;27709;52.036;5.906;2023-02-15T12:30:00;31.98;;;18.35;;
42030;SDS011;27709;52.036;5.906;2023-02-15T12:32:35;30.70;;;18.42;;
42030;SDS011;27709;52.036;5.906;2023-02-15T12:35:29;29.88;;;18.17;;
42030;SDS011;27709;52.036;5.906;2023-02-15T12:38:00;32.67;;;19.42;;
42030;SDS011;27709;52.036;5.906;2023-02-15T12:41:00;30.63;;;18.23;;
42030;SDS011;27709;52.036;5.906;2023-02-15T12:43:36;31.95;;;19.55;;
42030;SDS011;27709;52.036;5.906;2023-02-15T12:57:01;36.20;;;21.30;;
42030;SDS011;27709;52.036;5.906;2023-02-15T12:59:47;30.20;;;18.13;;
42030;SDS011;27709;52.036;5.906;2023-02-15T13:02:22;30.80;;;17.83;;
42030;SDS011;27709;52.036;5.906;2023-02-15T13:05:14;30.70;;;17.88;;
42030;SDS011;27709;52.036;5.906;2023-02-15T13:07:50;29.13;;;17.48;;
42030;SDS011;27709;52.036;5.906;2023-02-15T13:10:24;34.03;;;19.42;;
42030;SDS011;27709;52.036;5.906;2023-02-15T13:12:53;30.58;;;19.02;;
42030;SDS011;27709;52.036;5.906;2023-02-15T13:15:32;32.55;;;18.80;;
42030;SDS011;27709;52.036;5.906;2023-02-15T13:18:10;32.67;;;19.60;;
42030;SDS011;27709;52.036;5.906;2023-02-15T13:20:59;31.15;;;18.65;;
42030;SDS011;27709;52.036;5.906;2023-02-15T13:23:44;29.20;;;18.92;;
42030;SDS011;27709;52.036;5.906;2023-02-15T13:26:23;35.75;;;20.75;;
42030;SDS011;27709;52.036;5.906;2023-02-15T13:28:52;34.42;;;21.05;;
42030;SDS011;27709;52.036;5.906;2023-02-15T13:31:21;35.85;;;22.02;;
42030;SDS011;27709;52.036;5.906;2023-02-15T13:33:56;32.85;;;19.45;;
42030;SDS011;27709;52.036;5.906;2023-02-15T13:36:34;36.03;;;20.83;;
42030;SDS011;27709;52.036;5.906;2023-02-15T13:39:12;32.63;;;19.55;;
42030;SDS011;27709;52.036;5.906;2023-02-15T13:42:00;31.48;;;18.88;;
42030;SDS011;27709;52.036;5.906;2023-02-15T13:44:53;30.88;;;19.08;;
42030;SDS011;27709;52.036;5.906;2023-02-15T13:47:32;33.42;;;21.52;;
42030;SDS011;27709;52.036;5.906;2023-02-15T13:52:46;36.25;;;21.88;;
42030;SDS011;27709;52.036;5.906;2023-02-15T13:55:38;29.90;;;18.27;;
42030;SDS011;27709;52.036;5.906;2023-02-15T13:58:18;29.40;;;17.25;;
42030;SDS011;27709;52.036;5.906;2023-02-15T14:07:23;38.35;;;21.58;;
42030;SDS011;27709;52.036;5.906;2023-02-15T14:15:44;29.35;;;18.25;;
42030;SDS011;27709;52.036;5.906;2023-02-15T14:18:24;35.30;;;20.52;;
42030;SDS011;27709;52.036;5.906;2023-02-15T14:20:59;33.10;;;20.85;;
42030;SDS011;27709;52.036;5.906;2023-02-15T14:23:43;38.25;;;21.00;;
42030;SDS011;27709;52.036;5.906;2023-02-15T14:31:37;31.60;;;18.48;;
42030;SDS011;27709;52.036;5.906;2023-02-15T14:37:13;27.85;;;17.50;;
42030;SDS011;27709;52.036;5.906;2023-02-15T14:39:47;30.17;;;18.52;;
42030;SDS011;27709;52.036;5.906;2023-02-15T14:42:54;32.50;;;19.48;;
42030;SDS011;27709;52.036;5.906;2023-02-15T14:51:07;35.53;;;21.40;;
42030;SDS011;27709;52.036;5.906;2023-02-15T14:53:34;32.95;;;19.30;;
42030;SDS011;27709;52.036;5.906;2023-02-15T14:58:54;36.38;;;21.50;;
42030;SDS011;27709;52.036;5.906;2023-02-15T15:01:38;30.85;;;18.60;;
42030;SDS011;27709;52.036;5.906;2023-02-15T15:04:06;34.95;;;19.77;;
42030;SDS011;27709;52.036;5.906;2023-02-15T15:06:37;34.13;;;19.75;;
42030;SDS011;27709;52.036;5.906;2023-02-15T15:09:13;33.72;;;19.95;;
42030;SDS011;27709;52.036;5.906;2023-02-15T15:11:52;36.45;;;22.00;;
42030;SDS011;27709;52.036;5.906;2023-02-15T15:16:57;31.90;;;18.58;;
42030;SDS011;27709;52.036;5.906;2023-02-15T15:22:44;32.10;;;19.40;;
42030;SDS011;27709;52.036;5.906;2023-02-15T15:27:39;29.00;;;17.67;;
42030;SDS011;27709;52.036;5.906;2023-02-15T15:46:50;31.88;;;18.15;;
42030;SDS011;27709;52.036;5.906;2023-02-15T15:49:37;34.17;;;19.88;;
42030;SDS011;27709;52.036;5.906;2023-02-15T15:52:17;32.90;;;19.15;;
42030;SDS011;27709;52.036;5.906;2023-02-15T15:54:45;32.00;;;18.15;;
42030;SDS011;27709;52.036;5.906;2023-02-15T15:57:33;30.92;;;17.95;;
42030;SDS011;27709;52.036;5.906;2023-02-15T16:00:03;32.22;;;17.83;;
42030;SDS011;27709;52.036;5.906;2023-02-15T16:02:53;32.17;;;18.95;;
42030;SDS011;27709;52.036;5.906;2023-02-15T16:05:20;30.63;;;17.77;;
42030;SDS011;27709;52.036;5.906;2023-02-15T16:07:46;30.90;;;17.08;;
42030;SDS011;27709;52.036;5.906;2023-02-15T16:10:22;32.88;;;18.63;;
42030;SDS011;27709;52.036;5.906;2023-02-15T16:12:50;30.77;;;17.38;;
42030;SDS011;27709;52.036;5.906;2023-02-15T16:17:45;30.98;;;17.75;;
42030;SDS011;27709;52.036;5.906;2023-02-15T16:20:15;35.80;;;19.77;;
42030;SDS011;27709;52.036;5.906;2023-02-15T16:22:46;29.80;;;18.10;;
42030;SDS011;27709;52.036;5.906;2023-02-15T16:28:23;29.83;;;17.70;;
42030;SDS011;27709;52.036;5.906;2023-02-15T16:31:05;29.55;;;17.33;;
42030;SDS011;27709;52.036;5.906;2023-02-15T16:33:36;31.63;;;18.90;;
42030;SDS011;27709;52.036;5.906;2023-02-15T16:36:03;28.85;;;17.63;;
42030;SDS011;27709;52.036;5.906;2023-02-15T16:41:07;33.97;;;18.73;;
42030;SDS011;27709;52.036;5.906;2023-02-15T16:43:41;33.78;;;19.48;;
42030;SDS011;27709;52.036;5.906;2023-02-15T16:46:11;35.50;;;18.88;;
42030;SDS011;27709;52.036;5.906;2023-02-15T16:48:42;33.08;;;19.70;;
42030;SDS011;27709;52.036;5.906;2023-02-15T16:51:09;33.45;;;19.70;;
42030;SDS011;27709;52.036;5.906;2023-02-15T16:53:35;32.03;;;18.70;;
42030;SDS011;27709;52.036;5.906;2023-02-15T16:56:02;35.80;;;20.08;;
42030;SDS011;27709;52.036;5.906;2023-02-15T16:58:38;35.13;;;19.73;;
42030;SDS011;27709;52.036;5.906;2023-02-15T17:01:08;32.90;;;18.30;;
42030;SDS011;27709;52.036;5.906;2023-02-15T17:03:35;34.28;;;19.80;;
42030;SDS011;27709;52.036;5.906;2023-02-15T17:06:02;31.45;;;18.55;;
42030;SDS011;27709;52.036;5.906;2023-02-15T17:08:30;40.33;;;21.45;;
42030;SDS011;27709;52.036;5.906;2023-02-15T17:16:45;34.90;;;19.67;;
42030;SDS011;27709;52.036;5.906;2023-02-15T17:21:43;35.95;;;20.10;;
42030;SDS011;27709;52.036;5.906;2023-02-15T17:24:19;35.13;;;18.27;;
42030;SDS011;27709;52.036;5.906;2023-02-15T17:27:27;30.75;;;18.35;;
42030;SDS011;27709;52.036;5.906;2023-02-15T17:29:56;33.30;;;19.25;;
42030;SDS011;27709;52.036;5.906;2023-02-15T17:32:25;38.45;;;22.00;;
42030;SDS011;27709;52.036;5.906;2023-02-15T17:34:59;36.15;;;20.10;;
42030;SDS011;27709;52.036;5.906;2023-02-15T17:40:24;37.28;;;20.83;;